Observation data for Saint Lawrence on 01/20/2019      Previous  Date       Current Mesonet Observations  Soil Data  Daily Summary Page  Observations in Plain Language
KST1 200600Z 13007KT 01/M05 A3031 RMK A01 T00071051  RH  066%=      5-min Rain = 0
KST1 200605Z 13007KT 01/M05 A3031 RMK A01 T00051052  RH  066%=      5-min Rain = 0
KST1 200610Z 13007KT 01/M05 A3031 RMK A01 T00061050  RH  067%=      5-min Rain = 0
KST1 200615Z 13008KT 01/M05 A303 RMK A01 T00071050  RH  067%=      5-min Rain = 0
KST1 200620Z 13006KT 00/M05 A3031 RMK A01 T00021052  RH  067%=      5-min Rain = 0
KST1 200625Z 14006KT 01/M05 A3031 RMK A01 T00081045  RH  068%=      5-min Rain = 0
KST1 200630Z 14006KT 01/M05 A3031 RMK A01 T00061047  RH  068%=      5-min Rain = 0
KST1 200635Z 14007KT 00/M05 A3031 RMK A01 T00021050  RH  069%=      5-min Rain = 0
KST1 200640Z 14006KT 00/05 A3031 RMK A01 T00-00-50  RH  070%=      5-min Rain = 0
KST1 200645Z 14006KT M00/M05 A3031 RMK A01 T10011051  RH  070%=      5-min Rain = 0
KST1 200650Z 13006KT 00/05 A3031 RMK A01 T00000-47  RH  071%=      5-min Rain = 0
KST1 200655Z 13006KT 00/M05 A3031 RMK A01 T00021048  RH  070%=      5-min Rain = 0
KST1 200700Z 13006KT 00/M05 A3031 RMK A01 T00031045  RH  071%=      5-min Rain = 0
KST1 200705Z 13007KT 00/M05 A3031 RMK A01 T00021048  RH  070%=      5-min Rain = 0
KST1 200710Z 13007KT M00/M05 A3031 RMK A01 T10021051  RH  071%=      5-min Rain = 0
KST1 200715Z 13006KT M00/M05 A3031 RMK A01 T10021050  RH  071%=      5-min Rain = 0
KST1 200720Z 12006KT M00/M05 A3031 RMK A01 T10031048  RH  072%=      5-min Rain = 0
KST1 200725Z 11007KT M01/M05 A3031 RMK A01 T10051049  RH  073%=      5-min Rain = 0
KST1 200730Z 11007KT M01/M05 A3031 RMK A01 T10051050  RH  073%=      5-min Rain = 0
KST1 200735Z 12007KT M01/M05 A303 RMK A01 T10081050  RH  074%=      5-min Rain = 0
KST1 200740Z 12007KT M01/M05 A3031 RMK A01 T10071048  RH  075%=      5-min Rain = 0
KST1 200745Z 13007KT M00/M05 A3031 RMK A01 T10041047  RH  073%=      5-min Rain = 0
KST1 200750Z 12007KT M00/M05 A3031 RMK A01 T10041047  RH  073%=      5-min Rain = 0
KST1 200755Z 12007KT M01/M05 A3031 RMK A01 T10051048  RH  074%=      5-min Rain = 0
KST1 200800Z 12007KT M01/M05 A3031 RMK A01 T10051046  RH  075%=      5-min Rain = 0
KST1 200805Z 11007KT M01/M05 A3031 RMK A01 T10051045  RH  075%=      5-min Rain = 0
KST1 200810Z 12007KT M01/M05 A3031 RMK A01 T10051045  RH  075%=      5-min Rain = 0
KST1 200815Z 12007KT M01/M05 A3031 RMK A01 T10061047  RH  075%=      5-min Rain = 0
KST1 200820Z 12007KT M00/M05 A3031 RMK A01 T10041045  RH  075%=      5-min Rain = 0
KST1 200825Z 12008KT M00/M04 A3031 RMK A01 T10021043  RH  074%=      5-min Rain = 0
KST1 200830Z 13008KT 00/04 A3031 RMK A01 T00-00-42  RH  074%=      5-min Rain = 0
KST1 200835Z 13008KT M01/M05 A303 RMK A01 T10071049  RH  074%=      5-min Rain = 0
KST1 200840Z 14008KT M01/M05 A303 RMK A01 T10111050  RH  076%=      5-min Rain = 0
KST1 200845Z 13008KT M01/M05 A303 RMK A01 T10131051  RH  076%=      5-min Rain = 0
KST1 200850Z 13008KT M01/M05 A3031 RMK A01 T10141051  RH  077%=      5-min Rain = 0
KST1 200855Z 13008KT M02/M05 A3031 RMK A01 T10151052  RH  077%=      5-min Rain = 0
KST1 200900Z 13008KT M02/M05 A303 RMK A01 T10161052  RH  078%=      5-min Rain = 0
KST1 200905Z 13008KT M01/M05 A303 RMK A01 T10141049  RH  078%=      5-min Rain = 0
KST1 200910Z 13008KT M01/M05 A303 RMK A01 T10101047  RH  077%=      5-min Rain = 0
KST1 200915Z 12008KT M01/M05 A303 RMK A01 T10101048  RH  076%=      5-min Rain = 0
KST1 200920Z 13008KT M01/M05 A303 RMK A01 T10091047  RH  076%=      5-min Rain = 0
KST1 200925Z 13008KT M01/M05 A303 RMK A01 T10111049  RH  076%=      5-min Rain = 0
KST1 200930Z 13008KT M01/M05 A303 RMK A01 T10121050  RH  077%=      5-min Rain = 0
KST1 200935Z 13007KT M02/M05 A303 RMK A01 T10161053  RH  077%=      5-min Rain = 0
KST1 200940Z 13007KT M02/M05 A303 RMK A01 T10191053  RH  078%=      5-min Rain = 0
KST1 200945Z 13008KT M02/M05 A3029 RMK A01 T10181051  RH  079%=      5-min Rain = 0
KST1 200950Z 13008KT M02/M05 A3029 RMK A01 T10171050  RH  079%=      5-min Rain = 0
KST1 200955Z 13009KT M01/M05 A303 RMK A01 T10141047  RH  079%=      5-min Rain = 0
KST1 201000Z 13009KT M01/M05 A303 RMK A01 T10111046  RH  078%=      5-min Rain = 0
KST1 201005Z 13009KT M01/M05 A303 RMK A01 T10101045  RH  078%=      5-min Rain = 0
KST1 201010Z 13009KT M01/M05 A303 RMK A01 T10091045  RH  078%=      5-min Rain = 0
KST1 201015Z 13009KT M01/M05 A303 RMK A01 T10101045  RH  078%=      5-min Rain = 0
KST1 201020Z 13008KT M01/M05 A303 RMK A01 T10121047  RH  078%=      5-min Rain = 0
KST1 201025Z 12008KT M01/M05 A303 RMK A01 T10121045  RH  079%=      5-min Rain = 0
KST1 201030Z 12008KT M01/M04 A303 RMK A01 T10091043  RH  079%=      5-min Rain = 0
KST1 201035Z 12008KT M01/M04 A3029 RMK A01 T10091043  RH  079%=      5-min Rain = 0
KST1 201040Z 12008KT M01/M04 A3029 RMK A01 T10071042  RH  078%=      5-min Rain = 0
KST1 201045Z 12008KT M01/M04 A3029 RMK A01 T10061041  RH  078%=      5-min Rain = 0
KST1 201050Z 12008KT M01/M04 A3029 RMK A01 T10071042  RH  078%=      5-min Rain = 0
KST1 201055Z 12009KT M01/M04 A3029 RMK A01 T10101044  RH  078%=      5-min Rain = 0
KST1 201100Z 13008KT M01/M05 A3029 RMK A01 T10121046  RH  079%=      5-min Rain = 0
KST1 201105Z 13009KT M01/M04 A3029 RMK A01 T10121044  RH  080%=      5-min Rain = 0
KST1 201110Z 14008KT M01/M04 A3029 RMK A01 T10121044  RH  080%=      5-min Rain = 0
KST1 201115Z 14007KT M01/M05 A3029 RMK A01 T10141046  RH  080%=      5-min Rain = 0
KST1 201120Z 14008KT M02/M05 A3029 RMK A01 T10161046  RH  081%=      5-min Rain = 0
KST1 201125Z 14007KT M02/M05 A3029 RMK A01 T10161045  RH  081%=      5-min Rain = 0
KST1 201130Z 13007KT M02/M05 A3029 RMK A01 T10171046  RH  082%=      5-min Rain = 0
KST1 201135Z 12007KT M02/M05 A3029 RMK A01 T10181046  RH  082%=      5-min Rain = 0
KST1 201140Z 13007KT M02/M05 A3029 RMK A01 T10171046  RH  082%=      5-min Rain = 0
KST1 201145Z 13008KT M02/M05 A3028 RMK A01 T10161045  RH  082%=      5-min Rain = 0
KST1 201150Z 13008KT M02/M05 A3028 RMK A01 T10171046  RH  081%=      5-min Rain = 0
KST1 201155Z 13007KT M02/M05 A3028 RMK A01 T10181046  RH  082%=      5-min Rain = 0
KST1 201200Z 13007KT M02/M05 A3029 RMK A01 T10191047  RH  082%=      5-min Rain = 0
KST1 201205Z 13007KT M02/M05 A3029 RMK A01 T10211048  RH  083%=      5-min Rain = 0
KST1 201210Z 13007KT M02/M05 A3029 RMK A01 T10221048  RH  083%=      5-min Rain = 0
KST1 201215Z 13007KT M02/M05 A3029 RMK A01 T10221048  RH  083%=      5-min Rain = 0
KST1 201220Z 13008KT M02/M05 A3029 RMK A01 T10231048  RH  083%=      5-min Rain = 0
KST1 201225Z 12008KT M02/M05 A3029 RMK A01 T10221048  RH  083%=      5-min Rain = 0
KST1 201230Z 13008KT M02/M05 A3029 RMK A01 T10231049  RH  083%=      5-min Rain = 0
KST1 201235Z 12008KT M02/M05 A3029 RMK A01 T10231049  RH  083%=      5-min Rain = 0
KST1 201240Z 12008KT M02/M05 A3029 RMK A01 T10221048  RH  084%=      5-min Rain = 0
KST1 201245Z 13009KT M02/M05 A3028 RMK A01 T10211047  RH  083%=      5-min Rain = 0
KST1 201250Z 12009KT M02/M05 A3028 RMK A01 T10211047  RH  083%=      5-min Rain = 0
KST1 201255Z 12008KT M02/M05 A3028 RMK A01 T10201046  RH  083%=      5-min Rain = 0
KST1 201300Z 12008KT M02/M05 A3028 RMK A01 T10201046  RH  083%=      5-min Rain = 0
KST1 201305Z 12008KT M02/M05 A3028 RMK A01 T10191045  RH  083%=      5-min Rain = 0
KST1 201310Z 12009KT M02/M05 A3028 RMK A01 T10201046  RH  083%=      5-min Rain = 0
KST1 201315Z 12009KT M02/M05 A3028 RMK A01 T10201045  RH  084%=      5-min Rain = 0
KST1 201320Z 13009KT M02/M05 A3028 RMK A01 T10191045  RH  083%=      5-min Rain = 0
KST1 201325Z 13009KT M02/M05 A3028 RMK A01 T10191045  RH  083%=      5-min Rain = 0
KST1 201330Z 13009KT M02/M05 A3028 RMK A01 T10191045  RH  083%=      5-min Rain = 0
KST1 201335Z 13009KT M02/M05 A3028 RMK A01 T10191045  RH  083%=      5-min Rain = 0
KST1 201340Z 13009KT M02/M05 A3029 RMK A01 T10201045  RH  084%=      5-min Rain = 0
KST1 201345Z 14008KT M02/M05 A3029 RMK A01 T10201045  RH  084%=      5-min Rain = 0
KST1 201350Z 14007KT M02/M05 A3029 RMK A01 T10221046  RH  084%=      5-min Rain = 0
KST1 201355Z 14007KT M02/M05 A3029 RMK A01 T10211045  RH  085%=      5-min Rain = 0
KST1 201400Z 14008KT M02/M04 A3029 RMK A01 T10181042  RH  084%=      5-min Rain = 0
KST1 201405Z 14008KT M02/M04 A3029 RMK A01 T10161041  RH  084%=      5-min Rain = 0
KST1 201410Z 15008KT M01/M04 A3029 RMK A01 T10141040  RH  083%=      5-min Rain = 0
KST1 201415Z 15009KT M01/M04 A3029 RMK A01 T10111038  RH  083%=      5-min Rain = 0
KST1 201420Z 15009KT M01/M04 A3029 RMK A01 T10081037  RH  082%=      5-min Rain = 0
KST1 201425Z 15009KT M01/M04 A3029 RMK A01 T10071037  RH  081%=      5-min Rain = 0
KST1 201430Z 15009KT M01/M04 A3029 RMK A01 T10051036  RH  081%=      5-min Rain = 0
KST1 201435Z 15009KT M00/M03 A3029 RMK A01 T10031034  RH  080%=      5-min Rain = 0
KST1 201440Z 15008KT M00/M03 A303 RMK A01 T10021033  RH  080%=      5-min Rain = 0
KST1 201445Z 15008KT 00/M03 A303 RMK A01 T00011032  RH  080%=      5-min Rain = 0
KST1 201450Z 15008KT 01/M03 A303 RMK A01 T00071029  RH  078%=      5-min Rain = 0
KST1 201455Z 15009KT 01/M03 A303 RMK A01 T00101028  RH  076%=      5-min Rain = 0
KST1 201500Z 15008KT 01/M03 A303 RMK A01 T00141027  RH  075%=      5-min Rain = 0
KST1 201505Z 15008KT 02/M03 A303 RMK A01 T00181025  RH  074%=      5-min Rain = 0
KST1 201510Z 15009KT 02/M03 A303 RMK A01 T00211026  RH  072%=      5-min Rain = 0
KST1 201515Z 15009KT 02/M03 A303 RMK A01 T00231026  RH  071%=      5-min Rain = 0
KST1 201520Z 16009KT 03/M03 A303 RMK A01 T00271025  RH  070%=      5-min Rain = 0
KST1 201525Z 16009KT 03/M02 A303 RMK A01 T00301024  RH  069%=      5-min Rain = 0
KST1 201530Z 16011KT 03/M03 A303 RMK A01 T00321025  RH  067%=      5-min Rain = 0
KST1 201535Z 16010KT 04/M02 A303 RMK A01 T00351024  RH  066%=      5-min Rain = 0
KST1 201540Z 16010KT 04/M02 A303 RMK A01 T00391022  RH  065%=      5-min Rain = 0
KST1 201545Z 16011KT 04/M02 A303 RMK A01 T00441021  RH  063%=      5-min Rain = 0
KST1 201550Z 17013KT 05/M02 A303 RMK A01 T00471023  RH  061%=      5-min Rain = 0
KST1 201555Z 17014KT 05/M02 A303 RMK A01 T00511023  RH  060%=      5-min Rain = 0
KST1 201600Z 17014KT 05/M02 A303 RMK A01 T00531023  RH  058%=      5-min Rain = 0
KST1 201605Z 17014KT 06/M02 A303 RMK A01 T00551022  RH  058%=      5-min Rain = 0
KST1 201610Z 17014KT 06/M02 A303 RMK A01 T00591021  RH  057%=      5-min Rain = 0
KST1 201615Z 18016KT 06/M02 A303 RMK A01 T00611021  RH  056%=      5-min Rain = 0
KST1 201620Z 17015KT 06/M02 A3029 RMK A01 T00641020  RH  055%=      5-min Rain = 0
KST1 201625Z 18015KT 07/M02 A303 RMK A01 T00671020  RH  054%=      5-min Rain = 0
KST1 201630Z 18014KT 07/M02 A303 RMK A01 T00711017  RH  054%=      5-min Rain = 0
KST1 201635Z 18015KT 08/M02 A3029 RMK A01 T00771018  RH  052%=      5-min Rain = 0
KST1 201640Z 18014G19KT 08/M02 A3029 RMK A01 T00821017  RH  050%=      5-min Rain = 0
KST1 201645Z 19015KT 08/M02 A3029 RMK A01 T00821020  RH  049%=      5-min Rain = 0
KST1 201650Z 18015KT 09/M02 A3029 RMK A01 T00861017  RH  049%=      5-min Rain = 0
KST1 201655Z 18015KT 09/M02 A3028 RMK A01 T00911016  RH  048%=      5-min Rain = 0
KST1 201700Z 19015KT 10/M02 A3028 RMK A01 T00951017  RH  046%=      5-min Rain = 0
KST1 201705Z 18015KT 10/M02 A3028 RMK A01 T00991016  RH  045%=      5-min Rain = 0
KST1 201710Z 18014KT 10/M02 A3027 RMK A01 T01041015  RH  044%=      5-min Rain = 0
KST1 201715Z 18014G20KT 11/M02 A3027 RMK A01 T01081016  RH  043%=      5-min Rain = 0
KST1 201720Z 19014KT 11/M02 A3027 RMK A01 T01101016  RH  042%=      5-min Rain = 0
KST1 201725Z 18017KT 12/M02 A3027 RMK A01 T01151019  RH  040%=      5-min Rain = 0
KST1 201730Z 18018KT 12/M02 A3026 RMK A01 T01161022  RH  039%=      5-min Rain = 0
KST1 201735Z 19018KT 11/M02 A3026 RMK A01 T01141024  RH  038%=      5-min Rain = 0
KST1 201740Z 19016G21KT 12/M02 A3026 RMK A01 T01161023  RH  038%=      5-min Rain = 0
KST1 201745Z 19015G20KT 12/M02 A3026 RMK A01 T01171023  RH  038%=      5-min Rain = 0
KST1 201750Z 19016G21KT 12/M02 A3025 RMK A01 T01161023  RH  038%=      5-min Rain = 0
KST1 201755Z 19016KT 12/M02 A3025 RMK A01 T01191022  RH  038%=      5-min Rain = 0
KST1 201800Z 18016KT 12/M02 A3025 RMK A01 T01211021  RH  037%=      5-min Rain = 0
KST1 201805Z 19015KT 12/M02 A3025 RMK A01 T01241021  RH  037%=      5-min Rain = 0
KST1 201810Z 20015KT 12/M02 A3025 RMK A01 T01241022  RH  036%=      5-min Rain = 0
KST1 201815Z 21015KT 12/M02 A3025 RMK A01 T01241024  RH  036%=      5-min Rain = 0
KST1 201820Z 20014G19KT 13/M02 A3025 RMK A01 T01271020  RH  036%=      5-min Rain = 0
KST1 201825Z 21014KT 13/M02 A3024 RMK A01 T01291021  RH  036%=      5-min Rain = 0
KST1 201830Z 20012KT 13/M02 A3024 RMK A01 T01291021  RH  036%=      5-min Rain = 0
KST1 201835Z 20014KT 13/M02 A3024 RMK A01 T01301022  RH  035%=      5-min Rain = 0
KST1 201840Z 20013KT 13/M02 A3023 RMK A01 T01291023  RH  035%=      5-min Rain = 0
KST1 201845Z 21013KT 13/M02 A3023 RMK A01 T01341020  RH  035%=      5-min Rain = 0
KST1 201850Z 20013G18KT 14/M02 A3022 RMK A01 T01361021  RH  034%=      5-min Rain = 0
KST1 201855Z 21013G18KT 14/M02 A3022 RMK A01 T01411020  RH  033%=      5-min Rain = 0
KST1 201900Z 18013KT 14/M02 A3022 RMK A01 T01431020  RH  033%=      5-min Rain = 0
KST1 201905Z 18013KT 14/M02 A3021 RMK A01 T01421020  RH  033%=      5-min Rain = 0
KST1 201910Z 19013KT 14/M02 A3021 RMK A01 T01431022  RH  032%=      5-min Rain = 0
KST1 201915Z 18013KT 15/M02 A302 RMK A01 T01451017  RH  033%=      5-min Rain = 0
KST1 201920Z 19013KT 15/M02 A302 RMK A01 T01471018  RH  032%=      5-min Rain = 0
KST1 201925Z 18012KT 15/M02 A3019 RMK A01 T01501016  RH  032%=      5-min Rain = 0
KST1 201930Z 18013G18KT 15/M02 A3019 RMK A01 T01471020  RH  032%=      5-min Rain = 0
KST1 201935Z 19013G18KT 15/M02 A3019 RMK A01 T01511019  RH  031%=      5-min Rain = 0
KST1 201940Z 18013G18KT 15/M02 A3019 RMK A01 T01501017  RH  032%=      5-min Rain = 0
KST1 201945Z 19014G19KT 15/M02 A3018 RMK A01 T01531021  RH  031%=      5-min Rain = 0
KST1 201950Z 19012G17KT 16/M02 A3018 RMK A01 T01581018  RH  030%=      5-min Rain = 0
KST1 201955Z 19014KT 16/M02 A3018 RMK A01 T01551022  RH  030%=      5-min Rain = 0
KST1 202000Z 19011G16KT 15/M02 A3017 RMK A01 T01531022  RH  030%=      5-min Rain = 0
KST1 202005Z 20013KT 16/M03 A3016 RMK A01 T01571030  RH  028%=      5-min Rain = 0
KST1 202010Z 19014KT 16/M03 A3016 RMK A01 T01581029  RH  028%=      5-min Rain = 0
KST1 202015Z 20013KT 16/M03 A3016 RMK A01 T01601031  RH  027%=      5-min Rain = 0
KST1 202020Z 19014KT 16/M03 A3016 RMK A01 T01571031  RH  028%=      5-min Rain = 0
KST1 202025Z 18014KT 16/M03 A3015 RMK A01 T01621026  RH  028%=      5-min Rain = 0
KST1 202030Z 19014KT 16/M03 A3015 RMK A01 T01611033  RH  027%=      5-min Rain = 0
KST1 202035Z 18014G19KT 16/M03 A3014 RMK A01 T01631030  RH  027%=      5-min Rain = 0
KST1 202040Z 19012G17KT 16/M03 A3014 RMK A01 T01621033  RH  026%=      5-min Rain = 0
KST1 202045Z 19013KT 16/M03 A3014 RMK A01 T01621031  RH  027%=      5-min Rain = 0
KST1 202050Z 20012KT 16/M03 A3014 RMK A01 T01641031  RH  026%=      5-min Rain = 0
KST1 202055Z 19013KT 16/M03 A3014 RMK A01 T01631031  RH  026%=      5-min Rain = 0
KST1 202100Z 19013KT 17/M03 A3013 RMK A01 T01651031  RH  026%=      5-min Rain = 0
KST1 202105Z 19013KT 16/M04 A3013 RMK A01 T01641036  RH  025%=      5-min Rain = 0
KST1 202110Z 20012KT 17/M03 A3013 RMK A01 T01661034  RH  026%=      5-min Rain = 0
KST1 202115Z 19012KT 17/M03 A3013 RMK A01 T01681033  RH  025%=      5-min Rain = 0
KST1 202120Z 19012KT 17/M03 A3013 RMK A01 T01671033  RH  025%=      5-min Rain = 0
KST1 202125Z 20012KT 17/M04 A3013 RMK A01 T01681035  RH  025%=      5-min Rain = 0
KST1 202130Z 20012KT 17/M04 A3013 RMK A01 T01661039  RH  024%=      5-min Rain = 0
KST1 202135Z 19012KT 17/M04 A3013 RMK A01 T01661040  RH  024%=      5-min Rain = 0
KST1 202140Z 20011KT 17/M04 A3013 RMK A01 T01651040  RH  025%=      5-min Rain = 0
KST1 202145Z 19011KT 17/M04 A3013 RMK A01 T01681037  RH  025%=      5-min Rain = 0
KST1 202150Z 20012KT 17/M04 A3013 RMK A01 T01681040  RH  024%=      5-min Rain = 0
KST1 202155Z 20012KT 17/M04 A3013 RMK A01 T01681040  RH  024%=      5-min Rain = 0
KST1 202200Z 20012KT 17/M04 A3012 RMK A01 T01681038  RH  024%=      5-min Rain = 0
KST1 202205Z 19013KT 17/M03 A3012 RMK A01 T01681034  RH  025%=      5-min Rain = 0
KST1 202210Z 19010G15KT 17/M03 A3012 RMK A01 T01701030  RH  026%=      5-min Rain = 0
KST1 202215Z 19011KT 17/M03 A3012 RMK A01 T01671033  RH  025%=      5-min Rain = 0
KST1 202220Z 20011KT 17/M03 A3012 RMK A01 T01691032  RH  025%=      5-min Rain = 0
KST1 202225Z 19012KT 17/M03 A3012 RMK A01 T01711028  RH  026%=      5-min Rain = 0
KST1 202230Z 19012KT 17/M03 A3012 RMK A01 T01691030  RH  026%=      5-min Rain = 0
KST1 202235Z 20012KT 17/M03 A3012 RMK A01 T01661032  RH  026%=      5-min Rain = 0
KST1 202240Z 19012KT 16/M03 A3012 RMK A01 T01641031  RH  026%=      5-min Rain = 0
KST1 202245Z 19011G17KT 17/M03 A3012 RMK A01 T01671026  RH  027%=      5-min Rain = 0
KST1 202250Z 18012KT 17/M03 A3012 RMK A01 T01661027  RH  027%=      5-min Rain = 0
KST1 202255Z 19012KT 16/M03 A3012 RMK A01 T01631027  RH  027%=      5-min Rain = 0
KST1 202300Z 19012KT 16/M03 A3012 RMK A01 T01601027  RH  028%=      5-min Rain = 0
KST1 202305Z 19012KT 16/M02 A3012 RMK A01 T01581024  RH  029%=      5-min Rain = 0
KST1 202310Z 19012KT 16/M02 A3012 RMK A01 T01571023  RH  029%=      5-min Rain = 0
KST1 202315Z 19011KT 16/M02 A3012 RMK A01 T01561023  RH  029%=      5-min Rain = 0
KST1 202320Z 18010KT 15/M02 A3012 RMK A01 T01521024  RH  030%=      5-min Rain = 0
KST1 202325Z 18009KT 15/M02 A3012 RMK A01 T01511024  RH  030%=      5-min Rain = 0
KST1 202330Z 19008KT 15/M02 A3012 RMK A01 T01531022  RH  030%=      5-min Rain = 0
KST1 202335Z 19008KT 15/M02 A3012 RMK A01 T01541020  RH  030%=      5-min Rain = 0
KST1 202340Z 19009KT 15/M02 A3011 RMK A01 T01531019  RH  031%=      5-min Rain = 0
KST1 202345Z 19009KT 15/M02 A3011 RMK A01 T01511019  RH  031%=      5-min Rain = 0
KST1 202350Z 18011KT 15/M02 A3011 RMK A01 T01481020  RH  032%=      5-min Rain = 0
KST1 202355Z 18011KT 14/M02 A3011 RMK A01 T01441020  RH  033%=      5-min Rain = 0
KST1 210000Z 18011KT 14/M02 A3011 RMK A01 T01401020  RH  033%=      5-min Rain = 0
KST1 210005Z 18011KT 14/M02 A3011 RMK A01 T01351020  RH  035%=      5-min Rain = 0
KST1 210010Z 18011KT 13/M02 A3011 RMK A01 T01311021  RH  035%=      5-min Rain = 0
KST1 210015Z 18010KT 13/M02 A3011 RMK A01 T01271021  RH  036%=      5-min Rain = 0
KST1 210020Z 17011KT 13/M02 A3011 RMK A01 T01261021  RH  036%=      5-min Rain = 0
KST1 210025Z 18011KT 13/M02 A3011 RMK A01 T01251020  RH  037%=      5-min Rain = 0
KST1 210030Z 18011KT 12/M02 A3011 RMK A01 T01241020  RH  037%=      5-min Rain = 0
KST1 210035Z 18010KT 12/M02 A3011 RMK A01 T01201020  RH  038%=      5-min Rain = 0
KST1 210040Z 17010KT 12/M02 A3011 RMK A01 T01161020  RH  039%=      5-min Rain = 0
KST1 210045Z 17010KT 12/M02 A3011 RMK A01 T01161020  RH  039%=      5-min Rain = 0
KST1 210050Z 17009KT 12/M02 A3011 RMK A01 T01161020  RH  039%=      5-min Rain = 0
KST1 210055Z 15008KT 11/M02 A3011 RMK A01 T01091023  RH  040%=      5-min Rain = 0
KST1 210100Z 15009KT 10/M02 A3011 RMK A01 T00991023  RH  043%=      5-min Rain = 0
KST1 210105Z 16009KT 10/M02 A3011 RMK A01 T01021022  RH  042%=      5-min Rain = 0
KST1 210110Z 17010KT 11/M02 A3011 RMK A01 T01061020  RH  042%=      5-min Rain = 0
KST1 210115Z 16009KT 10/M02 A3011 RMK A01 T01021022  RH  042%=      5-min Rain = 0
KST1 210120Z 16008KT 09/M02 A3011 RMK A01 T00941024  RH  044%=      5-min Rain = 0
KST1 210125Z 15007KT 09/M03 A3011 RMK A01 T00851026  RH  046%=      5-min Rain = 0
KST1 210130Z 16009KT 08/M03 A3011 RMK A01 T00781025  RH  048%=      5-min Rain = 0
KST1 210135Z 16009KT 08/M02 A3011 RMK A01 T00821023  RH  048%=      5-min Rain = 0
KST1 210140Z 16009KT 09/M02 A3011 RMK A01 T00871023  RH  047%=      5-min Rain = 0
KST1 210145Z 17009KT 09/M02 A3011 RMK A01 T00851023  RH  047%=      5-min Rain = 0
KST1 210150Z 17009KT 08/M02 A3011 RMK A01 T00831023  RH  048%=      5-min Rain = 0
KST1 210155Z 16008KT 08/M02 A3011 RMK A01 T00811023  RH  048%=      5-min Rain = 0
KST1 210200Z 16009KT 07/M03 A3011 RMK A01 T00741025  RH  050%=      5-min Rain = 0
KST1 210205Z 17009KT 08/M02 A301 RMK A01 T00751021  RH  051%=      5-min Rain = 0
KST1 210210Z 17009KT 08/M02 A301 RMK A01 T00761022  RH  051%=      5-min Rain = 0
KST1 210215Z 16009KT 07/M02 A301 RMK A01 T00731023  RH  051%=      5-min Rain = 0
KST1 210220Z 16009KT 07/M02 A301 RMK A01 T00701022  RH  052%=      5-min Rain = 0
KST1 210225Z 17010KT 07/M02 A301 RMK A01 T00741019  RH  052%=      5-min Rain = 0
KST1 210230Z 17010KT 08/M02 A301 RMK A01 T00761019  RH  052%=      5-min Rain = 0
KST1 210235Z 18010KT 08/M02 A301 RMK A01 T00771017  RH  052%=      5-min Rain = 0
KST1 210240Z 18010KT 08/M02 A3009 RMK A01 T00801016  RH  051%=      5-min Rain = 0
KST1 210245Z 18011KT 08/M02 A3009 RMK A01 T00811016  RH  051%=      5-min Rain = 0
KST1 210250Z 17011KT 08/M02 A3009 RMK A01 T00821015  RH  051%=      5-min Rain = 0
KST1 210255Z 18012KT 08/M01 A3009 RMK A01 T00831014  RH  051%=      5-min Rain = 0
KST1 210300Z 18012KT 09/M01 A3009 RMK A01 T00851014  RH  050%=      5-min Rain = 0
KST1 210305Z 18012KT 09/M01 A3009 RMK A01 T00851014  RH  050%=      5-min Rain = 0
KST1 210310Z 17013KT 09/M01 A3009 RMK A01 T00861014  RH  050%=      5-min Rain = 0
KST1 210315Z 17013KT 09/M01 A3008 RMK A01 T00861014  RH  050%=      5-min Rain = 0
KST1 210320Z 17013KT 09/M01 A3008 RMK A01 T00871014  RH  050%=      5-min Rain = 0
KST1 210325Z 18013G18KT 09/M01 A3008 RMK A01 T00871014  RH  050%=      5-min Rain = 0
KST1 210330Z 18013KT 09/M01 A3008 RMK A01 T00861013  RH  050%=      5-min Rain = 0
KST1 210335Z 18013KT 09/M01 A3008 RMK A01 T00851013  RH  051%=      5-min Rain = 0
KST1 210340Z 18013KT 08/M01 A3008 RMK A01 T00841013  RH  051%=      5-min Rain = 0
KST1 210345Z 18012KT 08/M01 A3008 RMK A01 T00821013  RH  052%=      5-min Rain = 0
KST1 210350Z 18012KT 08/M01 A3008 RMK A01 T00811013  RH  052%=      5-min Rain = 0
KST1 210355Z 17012KT 08/M01 A3008 RMK A01 T00811013  RH  052%=      5-min Rain = 0
KST1 210400Z 17012KT 08/M01 A3007 RMK A01 T00801013  RH  053%=      5-min Rain = 0
KST1 210405Z 17012KT 08/M01 A3007 RMK A01 T00791013  RH  053%=      5-min Rain = 0
KST1 210410Z 18012G17KT 08/M01 A3007 RMK A01 T00801012  RH  053%=      5-min Rain = 0
KST1 210415Z 18013KT 08/M01 A3007 RMK A01 T00801012  RH  053%=      5-min Rain = 0
KST1 210420Z 18014KT 08/M01 A3007 RMK A01 T00801012  RH  053%=      5-min Rain = 0
KST1 210425Z 18013KT 08/M01 A3007 RMK A01 T00791012  RH  053%=      5-min Rain = 0
KST1 210430Z 18013KT 08/M01 A3007 RMK A01 T00791012  RH  053%=      5-min Rain = 0
KST1 210435Z 18012KT 08/M01 A3007 RMK A01 T00781012  RH  053%=      5-min Rain = 0
KST1 210440Z 18012KT 08/M01 A3008 RMK A01 T00771012  RH  054%=      5-min Rain = 0
KST1 210445Z 18012KT 08/M01 A3007 RMK A01 T00761012  RH  054%=      5-min Rain = 0
KST1 210450Z 18012KT 08/M01 A3007 RMK A01 T00751012  RH  054%=      5-min Rain = 0
KST1 210455Z 18012KT 07/M01 A3007 RMK A01 T00741013  RH  055%=      5-min Rain = 0
KST1 210500Z 18012KT 07/M01 A3007 RMK A01 T00731013  RH  055%=      5-min Rain = 0
KST1 210505Z 18012KT 07/M01 A3007 RMK A01 T00731013  RH  055%=      5-min Rain = 0
KST1 210510Z 18011KT 07/M01 A3007 RMK A01 T00711013  RH  056%=      5-min Rain = 0
KST1 210515Z 18011KT 07/M01 A3007 RMK A01 T00711013  RH  056%=      5-min Rain = 0
KST1 210520Z 18011KT 07/M01 A3007 RMK A01 T00691013  RH  056%=      5-min Rain = 0
KST1 210525Z 18011KT 07/M01 A3007 RMK A01 T00691013  RH  056%=      5-min Rain = 0
KST1 210530Z 18011KT 07/M01 A3007 RMK A01 T00681013  RH  057%=      5-min Rain = 0
KST1 210535Z 18011KT 07/M01 A3007 RMK A01 T00681013  RH  057%=      5-min Rain = 0
KST1 210540Z 18011KT 07/M01 A3007 RMK A01 T00681013  RH  057%=      5-min Rain = 0
KST1 210545Z 18011KT 07/M01 A3007 RMK A01 T00681013  RH  057%=      5-min Rain = 0
KST1 210550Z 19010KT 07/M01 A3007 RMK A01 T00671013  RH  057%=      5-min Rain = 0
KST1 210555Z 19010KT 07/M01 A3007 RMK A01 T00661013  RH  057%=      5-min Rain = 0

Page generated in 0.0129 seconds.